Hlavní strana
METAR-TAF:

METAR-TAF

Letiště :

Destin-Fort Walton Beach Airport

Destin, Florida, Spojené státy americké

zeměpisná šířka: 30-23-36N, zeměpisná délka: 086-28-03W, výška: 6 m

Aktuální stav počasí

Zpráva byla vytvořena před 10 minutami, v 10:53 UTC
Bezvětří
Teplota 23°C
Vlhkost vzduchu 94%
Tlak 1020 hPa
Viditelnost: 16.1 km
Jasno

METAR: KDTS 241053Z 00000KT 10SM CLR 23/22 A3012 RMK AO2 SLP199 T02280222

Čas: 06:03 (11:03 UTC)


TAF: chybějící

Stav a předpovědi počasí z více než 4 000 letišť (zprávy METAR a TAF).

Červené a žluté tečky na mapě představují dostupné meteorologické stanice.

Když kurzor umístíte na tečku, zobrazí se název stanice.

Pak kliknutím zobrazíte stav a předpověď počasí.

Chcete-li změnit mapu, kliknutím na zelené tlačítko se znaménkem +mapu přiblížíte, kliknutím na zelené tlačítko se znaménkem – mapu oddálíte a kliknutím na zelené šipky přejdete na sousední mapy.


METAR-TAF: